createdAt,value
2022-08-10T00:01:52.095Z,26.80
2022-08-10T00:04:22.458Z,27.40
2022-08-10T00:06:52.636Z,28.30
2022-08-10T00:09:21.114Z,29.30
2022-08-10T00:11:49.287Z,29.40
2022-08-10T00:14:17.472Z,28.70
2022-08-10T00:16:45.842Z,27.60
2022-08-10T00:19:16.426Z,27.30
2022-08-10T00:21:46.569Z,28.40
2022-08-10T00:24:15.156Z,29.80
2022-08-10T00:27:58.919Z,30.90
2022-08-10T00:29:31.734Z,29.80
2022-08-10T00:32:00.102Z,30.00
2022-08-10T00:34:31.156Z,30.70
2022-08-10T00:37:00.583Z,31.30
2022-08-10T00:39:29.298Z,32.50
2022-08-10T00:42:01.824Z,32.40
2022-08-10T00:44:35.997Z,32.50
2022-08-10T00:47:04.440Z,32.30
2022-08-10T00:49:34.172Z,32.80
2022-08-10T00:52:02.647Z,33.10
2022-08-10T00:54:31.139Z,33.10
2022-08-10T00:57:17.941Z,32.80
2022-08-10T00:59:58.874Z,32.40
2022-08-10T01:02:30.625Z,32.80
2022-08-10T01:05:03.823Z,33.00
2022-08-10T01:08:00.847Z,35.20
2022-08-10T01:10:38.950Z,35.80
2022-08-10T01:13:14.292Z,35.10
2022-08-10T01:15:54.112Z,34.10
2022-08-10T01:18:35.870Z,34.10
2022-08-10T01:21:33.682Z,34.00
2022-08-10T01:24:30.146Z,34.00
2022-08-10T01:27:16.952Z,33.50
2022-08-10T01:30:02.819Z,33.20
2022-08-10T01:32:49.947Z,33.70
2022-08-10T01:35:25.031Z,33.70
2022-08-10T01:38:00.924Z,34.40
2022-08-10T01:40:32.328Z,35.10
2022-08-10T01:43:08.465Z,35.50
2022-08-10T01:45:44.927Z,35.80
2022-08-10T01:48:31.927Z,35.70
2022-08-10T01:51:08.463Z,34.40
2022-08-10T01:53:42.875Z,34.50
2022-08-10T01:56:14.109Z,34.90
2022-08-10T01:58:43.449Z,34.00
2022-08-10T02:01:16.913Z,32.90
2022-08-10T02:04:03.568Z,32.00
2022-08-10T02:06:44.625Z,32.60
2022-08-10T02:09:16.508Z,33.30
2022-08-10T02:12:05.276Z,33.70
2022-08-10T02:14:36.355Z,33.20
2022-08-10T02:17:58.523Z,33.90
2022-08-10T02:20:03.459Z,34.40
2022-08-10T02:22:37.416Z,34.20
2022-08-10T02:25:09.776Z,34.30
2022-08-10T02:27:59.309Z,34.10
2022-08-10T02:30:29.652Z,34.80
2022-08-10T02:33:00.422Z,35.30
2022-08-10T02:35:38.405Z,38.30
2022-08-10T02:38:21.442Z,37.10
2022-08-10T02:45:12.824Z,38.30
2022-08-10T02:45:21.566Z,38.70
2022-08-10T02:46:46.263Z,39.10
2022-08-10T02:49:22.480Z,38.30
2022-08-10T02:52:06.321Z,38.20
2022-08-10T02:54:43.254Z,38.30
2022-08-10T02:57:17.942Z,39.40
2022-08-10T02:59:49.236Z,38.10
2022-08-10T03:02:24.554Z,39.60
2022-08-10T03:04:58.551Z,42.30
2022-08-10T03:07:43.230Z,41.70
2022-08-10T03:10:16.553Z,41.40
2022-08-10T03:12:46.869Z,43.40
2022-08-10T03:15:16.876Z,42.50
2022-08-10T03:17:57.448Z,42.40
2022-08-10T03:20:39.515Z,44.00
2022-08-10T03:23:13.901Z,42.80
2022-08-10T03:25:54.044Z,42.80
2022-08-10T03:28:23.996Z,43.30
2022-08-10T03:30:53.233Z,44.80
2022-08-10T03:33:22.686Z,44.40
2022-08-10T03:36:42.276Z,45.70
2022-08-10T03:38:41.621Z,46.00
2022-08-10T03:41:16.260Z,45.80
2022-08-10T03:43:47.915Z,45.20
2022-08-10T03:46:19.390Z,43.70
2022-08-10T03:48:50.995Z,41.60
2022-08-10T03:51:21.352Z,43.30
2022-08-10T03:54:02.856Z,43.30
2022-08-10T03:56:36.666Z,44.30
2022-08-10T03:59:07.222Z,44.50
2022-08-10T04:02:45.981Z,44.40
2022-08-10T04:04:25.819Z,42.90
2022-08-10T04:06:57.999Z,42.10
2022-08-10T04:09:54.168Z,40.90
2022-08-10T04:12:19.524Z,41.60
2022-08-10T04:14:51.002Z,42.80
2022-08-10T04:18:02.810Z,43.80
2022-08-10T04:20:19.311Z,43.70
2022-08-10T04:22:52.219Z,42.70
2022-08-10T04:25:22.114Z,41.10
2022-08-10T04:27:52.010Z,42.20
2022-08-10T04:30:20.317Z,42.50
2022-08-10T04:32:53.655Z,42.00
2022-08-10T04:35:23.800Z,42.90
2022-08-10T04:37:54.684Z,41.20
2022-08-10T04:40:28.345Z,42.20
2022-08-10T04:43:02.241Z,43.30
2022-08-10T04:45:50.326Z,44.60
2022-08-10T04:48:42.425Z,44.00
2022-08-10T04:51:17.008Z,42.20
2022-08-10T04:54:04.022Z,41.70
2022-08-10T04:56:37.380Z,42.80
2022-08-10T04:59:07.046Z,43.60
2022-08-10T05:02:21.892Z,43.70
2022-08-10T05:04:35.956Z,43.20
2022-08-10T05:07:17.049Z,42.60
2022-08-10T05:10:02.826Z,42.80
2022-08-10T05:12:36.439Z,42.10
2022-08-10T05:15:08.632Z,42.00
2022-08-10T05:17:38.398Z,41.10
2022-08-10T05:20:09.412Z,40.90
2022-08-10T05:22:39.392Z,40.40
2022-08-10T05:25:12.400Z,40.90
2022-08-10T05:27:41.704Z,43.30
2022-08-10T05:30:13.500Z,44.90
2022-08-10T05:32:58.249Z,45.10
2022-08-10T05:35:52.872Z,45.80
2022-08-10T05:38:18.878Z,46.10
2022-08-10T05:40:50.446Z,44.80
2022-08-10T05:43:20.608Z,45.20
2022-08-10T05:46:19.566Z,44.50
2022-08-10T05:48:42.041Z,44.80
2022-08-10T05:51:26.995Z,44.70
2022-08-10T05:54:01.700Z,44.80
2022-08-10T05:56:56.215Z,45.60
2022-08-10T06:00:29.333Z,45.50
2022-08-10T06:02:33.670Z,45.60
2022-08-10T06:05:07.890Z,46.00
2022-08-10T06:07:40.507Z,46.30
2022-08-10T06:10:13.029Z,45.20
2022-08-10T06:12:54.835Z,45.20
2022-08-10T06:15:43.346Z,45.20
2022-08-10T06:18:14.575Z,44.80
2022-08-10T06:20:43.582Z,44.30
2022-08-10T06:23:13.147Z,43.80
2022-08-10T06:26:09.709Z,43.80
2022-08-10T06:28:34.170Z,44.00
2022-08-10T06:31:03.923Z,43.20
2022-08-10T06:33:34.485Z,43.70
2022-08-10T06:36:04.335Z,43.50
2022-08-10T06:38:35.143Z,44.20
2022-08-10T06:41:09.466Z,43.80
2022-08-10T06:43:44.749Z,43.40
2022-08-10T06:46:16.790Z,43.10
2022-08-10T06:48:51.601Z,42.90
2022-08-10T06:51:24.753Z,42.30
2022-08-10T06:53:55.806Z,42.40
2022-08-10T06:56:36.708Z,42.30
2022-08-10T06:59:13.456Z,42.10
2022-08-10T07:01:53.887Z,42.10
2022-08-10T07:04:32.632Z,41.30
2022-08-10T07:07:05.481Z,40.40
2022-08-10T07:09:37.867Z,39.80
2022-08-10T07:12:09.111Z,39.40
2022-08-10T07:14:52.908Z,39.20
2022-08-10T07:17:23.989Z,39.60
2022-08-10T07:19:55.989Z,38.60
2022-08-10T07:23:50.720Z,38.90
2022-08-10T07:25:20.223Z,38.00
2022-08-10T07:27:59.955Z,39.00
2022-08-10T07:30:33.495Z,37.50
2022-08-10T07:33:03.513Z,37.60
2022-08-10T07:35:42.367Z,37.00
2022-08-10T07:38:14.621Z,36.90
2022-08-10T07:40:45.061Z,37.50
2022-08-10T07:43:15.301Z,37.60
2022-08-10T07:45:46.115Z,35.70
2022-08-10T07:48:18.103Z,35.20
2022-08-10T07:50:47.415Z,35.20
2022-08-10T07:53:21.649Z,35.40
2022-08-10T07:56:04.147Z,34.80
2022-08-10T07:58:49.985Z,34.60
2022-08-10T08:01:28.966Z,34.90
2022-08-10T08:04:05.333Z,33.40
2022-08-10T08:06:40.875Z,32.60
2022-08-10T08:09:09.598Z,31.80
2022-08-10T08:11:39.074Z,33.10
2022-08-10T08:14:09.867Z,31.10
2022-08-10T08:16:43.548Z,31.50
2022-08-10T08:19:37.114Z,30.80
2022-08-10T08:24:08.884Z,28.20
2022-08-10T08:24:52.758Z,28.40
2022-08-10T08:27:22.061Z,28.00
2022-08-10T08:29:51.691Z,27.30
2022-08-10T08:32:24.045Z,27.20
2022-08-10T08:34:57.465Z,27.10
2022-08-10T08:38:32.517Z,26.20
2022-08-10T08:40:23.403Z,25.10
2022-08-10T08:43:34.793Z,24.30
2022-08-10T08:46:28.710Z,25.60
2022-08-10T08:50:05.278Z,24.00
2022-08-10T08:52:28.139Z,23.00
2022-08-10T08:55:04.931Z,22.40
2022-08-10T08:58:04.537Z,18.20
2022-08-10T09:00:43.261Z,17.50
2022-08-10T09:03:44.034Z,16.70
2022-08-10T09:06:29.791Z,16.60
2022-08-10T09:09:20.580Z,17.20
2022-08-10T09:12:02.623Z,15.70
2022-08-10T09:14:41.390Z,16.70
2022-08-10T09:17:20.043Z,14.70
2022-08-10T09:19:55.364Z,15.90
2022-08-10T09:22:32.607Z,15.30
2022-08-10T09:25:13.786Z,13.90
2022-08-10T09:27:49.184Z,14.90
2022-08-10T09:30:28.376Z,15.30
2022-08-10T09:36:24.402Z,14.30
2022-08-10T09:36:25.996Z,14.50
2022-08-10T09:38:55.164Z,13.90
2022-08-10T09:41:40.459Z,12.50
2022-08-10T09:44:15.940Z,14.70
2022-08-10T09:47:07.384Z,15.30
2022-08-10T09:49:57.824Z,14.30
2022-08-10T09:52:36.095Z,15.20
2022-08-10T09:55:15.804Z,13.40
2022-08-10T09:57:58.152Z,16.10
2022-08-10T10:00:35.946Z,14.10
2022-08-10T10:03:17.742Z,12.10
2022-08-10T10:05:56.865Z,12.00
2022-08-10T10:08:33.634Z,12.70
2022-08-10T10:11:10.737Z,12.30
2022-08-10T10:14:03.022Z,13.60
2022-08-10T10:16:54.341Z,13.90
2022-08-10T10:19:37.191Z,13.10
2022-08-10T10:22:26.432Z,11.20
2022-08-10T10:25:20.574Z,12.80
2022-08-10T10:28:04.168Z,12.20
2022-08-10T10:30:39.814Z,12.90
2022-08-10T10:33:16.173Z,12.50
2022-08-10T10:35:52.169Z,12.10
2022-08-10T10:38:24.316Z,11.50
2022-08-10T10:41:01.672Z,13.20
2022-08-10T10:43:43.775Z,12.60
2022-08-10T10:46:23.058Z,11.90
2022-08-10T10:49:01.832Z,12.30
2022-08-10T10:51:35.486Z,12.80
2022-08-10T10:54:13.043Z,11.50
2022-08-10T10:56:53.421Z,11.40
2022-08-10T10:59:54.019Z,11.30
2022-08-10T11:02:36.555Z,11.70
2022-08-10T11:05:16.805Z,12.00
2022-08-10T11:07:53.410Z,12.30
2022-08-10T11:10:33.344Z,11.90
2022-08-10T11:14:25.529Z,12.40
2022-08-10T11:16:18.800Z,13.60
2022-08-10T11:18:56.888Z,13.00
2022-08-10T11:21:34.333Z,12.00
2022-08-10T11:24:48.930Z,12.10
2022-08-10T11:27:02.338Z,11.60
2022-08-10T11:29:36.093Z,11.20
2022-08-10T11:32:21.476Z,12.00
2022-08-10T11:35:11.221Z,13.30
2022-08-10T11:38:32.072Z,12.20
2022-08-10T11:40:43.325Z,12.90
2022-08-10T11:43:17.407Z,12.80
2022-08-10T11:45:55.417Z,11.20
2022-08-10T11:48:54.660Z,13.10
2022-08-10T11:51:29.966Z,12.00
2022-08-10T11:54:04.799Z,11.80
2022-08-10T11:56:40.373Z,10.00
2022-08-10T11:59:27.123Z,10.80
2022-08-10T12:01:58.070Z,10.20
2022-08-10T12:04:30.780Z,10.40
2022-08-10T12:07:00.244Z,9.80
2022-08-10T12:10:10.884Z,9.10
2022-08-10T12:12:19.391Z,10.20
2022-08-10T12:15:01.163Z,9.20
2022-08-10T12:17:35.499Z,9.70
2022-08-10T12:20:22.864Z,11.10
2022-08-10T12:22:57.031Z,9.50
2022-08-10T12:25:57.831Z,9.60
2022-08-10T12:28:49.166Z,9.70
2022-08-10T12:31:16.712Z,8.70
2022-08-10T12:34:01.940Z,8.70
2022-08-10T12:36:41.440Z,8.40
2022-08-10T12:39:17.096Z,8.00
2022-08-10T12:41:52.587Z,8.40
2022-08-10T12:44:41.066Z,8.60
2022-08-10T12:47:19.354Z,8.20
2022-08-10T12:50:30.231Z,7.40
2022-08-10T12:52:53.105Z,8.20
2022-08-10T12:55:23.876Z,7.70
2022-08-10T12:57:55.012Z,8.60
2022-08-10T13:00:30.305Z,8.40
2022-08-10T13:03:00.711Z,7.00
2022-08-10T13:05:30.779Z,9.00
2022-08-10T13:08:40.097Z,8.70
2022-08-10T13:12:34.047Z,7.60
2022-08-10T13:14:04.784Z,8.30
2022-08-10T13:16:33.934Z,7.30
2022-08-10T13:19:05.088Z,6.50
2022-08-10T13:21:37.083Z,7.20
2022-08-10T13:24:11.932Z,7.10
2022-08-10T13:27:23.616Z,7.90
2022-08-10T13:29:37.666Z,8.50
2022-08-10T13:32:11.196Z,8.00
2022-08-10T13:34:45.616Z,7.60
2022-08-10T13:37:17.896Z,6.30
2022-08-10T13:39:58.281Z,7.00
2022-08-10T13:42:32.822Z,6.80
2022-08-10T13:45:09.151Z,6.80
2022-08-10T13:47:49.609Z,6.60
2022-08-10T13:50:35.459Z,7.80
2022-08-10T13:53:14.314Z,8.60
2022-08-10T13:55:54.270Z,8.20
2022-08-10T13:58:27.442Z,6.60
2022-08-10T14:00:58.040Z,5.40
2022-08-10T14:03:28.202Z,6.60
2022-08-10T14:05:58.603Z,7.40
2022-08-10T14:08:30.632Z,7.50
2022-08-10T14:11:11.294Z,8.70
2022-08-10T14:13:45.513Z,7.60
2022-08-10T14:16:14.922Z,6.40
2022-08-10T14:18:46.110Z,6.70
2022-08-10T14:21:14.803Z,6.60
2022-08-10T14:23:52.058Z,7.30
2022-08-10T14:26:26.442Z,7.00
2022-08-10T14:28:57.480Z,6.50
2022-08-10T14:31:33.796Z,6.10
2022-08-10T14:34:04.576Z,5.90
2022-08-10T14:36:43.280Z,6.50
2022-08-10T14:39:17.389Z,6.60
2022-08-10T14:42:03.001Z,6.80
2022-08-10T14:44:46.184Z,6.70
2022-08-10T14:47:51.646Z,5.90
2022-08-10T14:50:07.464Z,7.00
2022-08-10T14:52:44.168Z,7.90
2022-08-10T14:55:19.276Z,6.10
2022-08-10T14:58:19.318Z,7.20
2022-08-10T15:00:43.140Z,7.20
2022-08-10T15:03:58.705Z,7.20
2022-08-10T15:06:16.991Z,7.10
2022-08-10T15:08:47.977Z,7.10
2022-08-10T15:12:13.488Z,7.20
2022-08-10T15:14:41.588Z,7.00
2022-08-10T15:16:58.644Z,7.10
2022-08-10T15:20:01.207Z,6.60
2022-08-10T15:22:47.011Z,6.00
2022-08-10T15:25:18.330Z,6.30
2022-08-10T15:27:53.556Z,6.90
2022-08-10T15:30:31.426Z,7.30
2022-08-10T15:34:03.612Z,7.40
2022-08-10T15:36:34.164Z,8.30
2022-08-10T15:39:05.505Z,8.20
2022-08-10T15:41:57.773Z,8.00
2022-08-10T15:44:40.306Z,6.90
2022-08-10T15:47:16.989Z,7.90
2022-08-10T15:49:51.705Z,7.60
2022-08-10T15:52:38.837Z,7.30
2022-08-10T15:55:41.778Z,7.40
2022-08-10T15:58:08.061Z,6.80
2022-08-10T16:00:45.387Z,7.10
2022-08-10T16:03:25.391Z,8.20
2022-08-10T16:06:02.541Z,6.80
2022-08-10T16:08:56.513Z,7.20
2022-08-10T16:11:36.901Z,7.50
2022-08-10T16:14:17.279Z,7.90
2022-08-10T16:16:51.525Z,6.70
2022-08-10T16:19:25.269Z,7.70
2022-08-10T16:21:58.233Z,7.40
2022-08-10T16:24:30.921Z,7.70
2022-08-10T16:27:01.892Z,7.60
2022-08-10T16:29:30.517Z,8.00
2022-08-10T16:32:01.225Z,7.50
2022-08-10T16:34:33.279Z,7.80
2022-08-10T16:37:04.756Z,8.20
2022-08-10T16:39:57.804Z,7.40
2022-08-10T16:42:29.575Z,7.40
2022-08-10T16:45:03.539Z,8.60
2022-08-10T16:47:34.415Z,8.90
2022-08-10T16:50:08.232Z,8.10
2022-08-10T16:52:37.447Z,8.90
2022-08-10T16:55:23.502Z,8.50
2022-08-10T16:57:55.452Z,8.70
2022-08-10T17:00:25.960Z,9.20
2022-08-10T17:02:59.250Z,9.70
2022-08-10T17:06:09.554Z,9.30
2022-08-10T17:08:24.350Z,9.10
2022-08-10T17:10:55.207Z,9.20
2022-08-10T17:13:27.928Z,9.50
2022-08-10T17:16:01.802Z,9.80
2022-08-10T17:18:32.486Z,9.20
2022-08-10T17:21:08.852Z,9.20
2022-08-10T17:23:41.150Z,8.90
2022-08-10T17:26:14.774Z,8.50
2022-08-10T17:28:50.957Z,9.70
2022-08-10T17:31:53.920Z,9.20
2022-08-10T17:34:16.284Z,9.20
2022-08-10T17:36:49.575Z,9.20
2022-08-10T17:39:24.184Z,9.00
2022-08-10T17:41:55.580Z,9.60
2022-08-10T17:44:24.737Z,9.80
2022-08-10T17:46:53.668Z,9.50
2022-08-10T17:49:22.039Z,9.00
2022-08-10T17:51:55.073Z,10.20
2022-08-10T17:54:27.993Z,10.10
2022-08-10T17:57:00.158Z,10.10
2022-08-10T17:59:31.391Z,9.60
2022-08-10T18:02:04.427Z,11.10
2022-08-10T18:04:41.433Z,10.80
2022-08-10T18:07:13.786Z,10.60
2022-08-10T18:09:49.780Z,10.70
2022-08-10T18:12:30.711Z,12.40
2022-08-10T18:15:08.496Z,10.70
2022-08-10T18:17:43.504Z,10.60
2022-08-10T18:20:12.529Z,11.50
2022-08-10T18:22:45.780Z,10.80
2022-08-10T18:25:19.559Z,10.70
2022-08-10T18:28:03.725Z,10.50
2022-08-10T18:30:37.582Z,10.30
2022-08-10T18:33:11.855Z,10.70
2022-08-10T18:35:41.272Z,10.90
2022-08-10T18:38:13.091Z,10.80
2022-08-10T18:40:45.309Z,11.10
2022-08-10T18:44:06.134Z,10.70
2022-08-10T18:46:10.124Z,10.40
2022-08-10T18:48:43.196Z,10.70
2022-08-10T18:51:14.267Z,11.10
2022-08-10T18:53:51.553Z,11.40
2022-08-10T18:56:37.639Z,12.20
2022-08-10T18:59:14.828Z,11.70
2022-08-10T19:02:07.545Z,11.70
2022-08-10T19:05:04.444Z,11.80
2022-08-10T19:07:46.684Z,11.90
2022-08-10T19:10:26.887Z,12.20
2022-08-10T19:13:05.297Z,11.90
2022-08-10T19:15:42.529Z,12.50
2022-08-10T19:18:23.996Z,11.80
2022-08-10T19:20:58.515Z,12.40
2022-08-10T19:23:40.851Z,12.90
2022-08-10T19:26:44.891Z,12.20
2022-08-10T19:30:05.073Z,12.80
2022-08-10T19:32:24.880Z,12.50
2022-08-10T19:35:02.085Z,13.60
2022-08-10T19:37:38.201Z,13.80
2022-08-10T19:40:43.376Z,13.70
2022-08-10T19:43:20.693Z,14.20
2022-08-10T19:46:27.446Z,14.20
2022-08-10T19:49:03.788Z,14.30
2022-08-10T19:51:48.596Z,13.90
2022-08-10T19:54:25.996Z,14.50
2022-08-10T19:57:04.576Z,14.30
2022-08-10T20:00:18.622Z,14.50
2022-08-10T20:02:51.604Z,15.10
2022-08-10T20:05:29.211Z,15.50
2022-08-10T20:08:03.788Z,15.30
2022-08-10T20:10:42.227Z,16.00
2022-08-10T20:13:15.731Z,16.10
2022-08-10T20:15:49.281Z,16.30
2022-08-10T20:18:27.179Z,16.00
2022-08-10T20:21:02.418Z,16.20
2022-08-10T20:23:35.202Z,16.60
2022-08-10T20:26:09.683Z,16.70
2022-08-10T20:28:43.985Z,17.00
2022-08-10T20:31:20.696Z,17.30
2022-08-10T20:34:00.684Z,16.90
2022-08-10T20:36:33.814Z,17.00
2022-08-10T20:39:14.497Z,17.60
2022-08-10T20:41:59.092Z,17.50
2022-08-10T20:44:40.137Z,17.90
2022-08-10T20:47:14.111Z,17.50
2022-08-10T20:49:53.316Z,17.50
2022-08-10T20:52:26.131Z,18.00
2022-08-10T20:54:59.064Z,18.50
2022-08-10T20:58:12.633Z,18.70
2022-08-10T21:00:53.533Z,18.40
2022-08-10T21:03:35.775Z,19.00
2022-08-10T21:06:42.262Z,18.60
2022-08-10T21:09:21.835Z,19.10
2022-08-10T21:12:05.387Z,19.70
2022-08-10T21:14:47.608Z,19.60
2022-08-10T21:17:34.622Z,19.60
2022-08-10T21:20:15.087Z,19.80
2022-08-10T21:22:46.721Z,19.50
2022-08-10T21:25:19.502Z,19.80
2022-08-10T21:28:13.808Z,19.50
2022-08-10T21:30:53.279Z,19.90
2022-08-10T21:33:34.684Z,20.00
2022-08-10T21:36:12.514Z,19.90
2022-08-10T21:38:52.672Z,20.30
2022-08-10T21:41:57.955Z,20.00
2022-08-10T21:45:04.243Z,20.10
2022-08-10T21:48:16.647Z,20.00
2022-08-10T21:51:16.429Z,20.00
2022-08-10T21:54:25.987Z,20.00
2022-08-10T21:57:19.671Z,20.30
2022-08-10T22:00:11.266Z,20.10
2022-08-10T22:02:59.260Z,20.10
2022-08-10T22:05:49.317Z,20.00
2022-08-10T22:08:40.363Z,20.00
2022-08-10T22:11:42.938Z,20.10
2022-08-10T22:14:33.621Z,20.50
2022-08-10T22:17:59.523Z,21.10
2022-08-10T22:20:32.833Z,21.20
2022-08-10T22:23:48.219Z,21.30
2022-08-10T22:27:00.451Z,22.30
2022-08-10T22:29:53.515Z,23.50
2022-08-10T22:32:48.517Z,23.00
2022-08-10T22:36:00.611Z,21.70
2022-08-10T22:39:02.302Z,22.00
2022-08-10T22:42:01.999Z,22.20
2022-08-10T22:44:52.300Z,21.70
2022-08-10T22:47:40.078Z,22.90
2022-08-10T22:50:10.494Z,22.20
2022-08-10T22:53:02.929Z,22.30
2022-08-10T22:55:53.326Z,22.90
2022-08-10T22:58:41.681Z,22.70
2022-08-10T23:01:38.155Z,23.30
2022-08-10T23:04:14.285Z,23.60
2022-08-10T23:06:51.212Z,24.00
2022-08-10T23:09:23.379Z,23.60
2022-08-10T23:11:56.499Z,24.60
2022-08-10T23:14:34.387Z,25.30
2022-08-10T23:17:22.107Z,25.90
2022-08-10T23:20:04.347Z,26.70
2022-08-10T23:22:36.467Z,25.60
2022-08-10T23:25:11.422Z,26.40
2022-08-10T23:27:42.843Z,26.40
2022-08-10T23:30:17.493Z,26.00
2022-08-10T23:32:48.905Z,25.30
2022-08-10T23:36:12.927Z,24.30
2022-08-10T23:38:08.546Z,23.90
2022-08-10T23:40:38.033Z,23.50
2022-08-10T23:43:08.067Z,23.10
2022-08-10T23:45:53.180Z,22.70
2022-08-10T23:48:26.260Z,22.60
2022-08-10T23:51:00.023Z,22.90
2022-08-10T23:53:31.348Z,22.90
2022-08-10T23:56:09.104Z,23.20
2022-08-10T23:58:42.152Z,23.00
